Time;durP1;ratioP1;P1;durP2;ratioP2;P2;SDS_P1;SDS_P2;PMS_P1;PMS_P2;Temp;Humidity;BMP_temperature;BMP_pressure;BME280_temperature;BME280_humidity;BME280_pressure;Samples;Min_cycle;Max_cycle;Signal;HPM_P1;HPM_P2
2023/01/13 00:01:12;;;;;;;24.87;5.17;;;9.40;99.90;;;;;;5025164;28;20645;-68
2023/01/13 00:03:39;;;;;;;25.93;4.63;;;9.40;99.90;;;;;;5025350;28;20262;-67
2023/01/13 00:06:08;;;;;;;30.43;4.53;;;9.40;99.90;;;;;;5027392;28;20202;-67
2023/01/13 00:08:35;;;;;;;22.27;4.80;;;9.30;99.90;;;;;;5028198;28;20284;-67
2023/01/13 00:11:02;;;;;;;27.33;4.63;;;9.30;99.90;;;;;;5025633;28;20237;-68
2023/01/13 00:13:30;;;;;;;27.50;4.60;;;9.20;99.90;;;;;;5022876;28;20201;-67
2023/01/13 00:16:09;;;;;;;23.80;5.10;;;9.20;99.90;;;;;;5029241;28;20592;-67
2023/01/13 00:18:37;;;;;;;28.07;4.87;;;9.20;99.90;;;;;;5021493;28;20694;-68
2023/01/13 00:21:13;;;;;;;27.83;5.40;;;9.20;99.90;;;;;;5022907;28;20224;-67
2023/01/13 00:23:40;;;;;;;26.37;4.87;;;9.20;99.90;;;;;;5022993;28;20240;-67
2023/01/13 00:26:18;;;;;;;29.57;5.23;;;9.10;99.90;;;;;;5028026;28;20213;-67
2023/01/13 00:28:45;;;;;;;32.47;4.70;;;9.10;99.90;;;;;;5026853;28;20652;-67
2023/01/13 00:31:19;;;;;;;34.57;5.67;;;9.10;99.90;;;;;;5023357;28;20628;-68
2023/01/13 00:33:50;;;;;;;31.40;5.77;;;9.00;99.90;;;;;;5022961;28;20661;-67
2023/01/13 00:36:19;;;;;;;31.10;5.33;;;9.00;99.90;;;;;;5016761;28;20205;-67
2023/01/13 00:38:46;;;;;;;26.73;4.90;;;9.00;99.90;;;;;;5018637;28;20235;-67
2023/01/13 00:41:19;;;;;;;32.00;5.43;;;8.90;99.90;;;;;;5023756;28;20232;-67
2023/01/13 00:43:47;;;;;;;31.07;5.67;;;8.90;99.90;;;;;;5024731;28;20231;-68
2023/01/13 00:46:16;;;;;;;29.50;5.33;;;8.90;99.90;;;;;;5027185;28;20838;-67
2023/01/13 00:48:44;;;;;;;31.43;4.60;;;8.80;99.90;;;;;;5027424;28;20227;-67
2023/01/13 00:51:19;;;;;;;26.93;4.83;;;8.80;99.90;;;;;;5022213;28;20204;-68
2023/01/13 00:53:49;;;;;;;28.30;5.40;;;8.70;99.90;;;;;;5020142;28;20212;-68
2023/01/13 00:56:22;;;;;;;47.03;5.90;;;8.70;99.90;;;;;;5023068;28;20654;-67
2023/01/13 00:59:06;;;;;;;32.80;5.77;;;8.60;99.90;;;;;;5022014;28;20728;-67
2023/01/13 01:01:32;;;;;;;30.80;5.77;;;8.60;99.90;;;;;;5029381;28;20227;-67
2023/01/13 01:03:59;;;;;;;34.67;5.47;;;8.50;99.90;;;;;;5022513;28;20231;-67
2023/01/13 01:06:27;;;;;;;33.00;5.20;;;8.50;99.90;;;;;;5025348;28;20639;-67
2023/01/13 01:08:55;;;;;;;38.47;6.03;;;8.50;99.90;;;;;;5025919;28;20213;-67
2023/01/13 01:11:28;;;;;;;39.33;5.30;;;8.50;99.90;;;;;;5016862;28;20212;-67
2023/01/13 01:13:57;;;;;;;31.13;5.20;;;8.60;99.90;;;;;;5023356;28;20277;-67
2023/01/13 01:16:27;;;;;;;32.23;4.83;;;8.60;99.90;;;;;;5024839;28;20231;-67
2023/01/13 01:18:55;;;;;;;21.83;4.93;;;8.50;99.90;;;;;;5025879;28;20210;-67
2023/01/13 01:21:24;;;;;;;35.60;5.40;;;8.50;99.90;;;;;;5023761;28;20205;-68
2023/01/13 01:23:51;;;;;;;27.53;4.13;;;8.50;99.90;;;;;;5026542;28;20271;-67
2023/01/13 01:26:23;;;;;;;23.43;4.77;;;8.50;99.90;;;;;;5023837;28;20214;-67
2023/01/13 01:28:53;;;;;;;35.37;6.63;;;8.40;99.90;;;;;;5020420;28;20306;-67
2023/01/13 01:31:31;;;;;;;24.80;4.47;;;8.40;99.90;;;;;;5021865;28;20218;-67
2023/01/13 01:33:59;;;;;;;27.80;5.30;;;8.40;99.90;;;;;;5025548;28;20270;-67
2023/01/13 01:36:28;;;;;;;34.23;6.00;;;8.40;99.90;;;;;;5019846;28;20205;-67
2023/01/13 01:38:57;;;;;;;29.70;5.20;;;8.40;99.90;;;;;;5027208;28;20232;-68
2023/01/13 01:41:27;;;;;;;31.23;4.97;;;8.40;99.90;;;;;;5013114;28;20211;-68
2023/01/13 01:43:58;;;;;;;35.43;5.03;;;8.50;99.90;;;;;;5020516;28;20316;-67
2023/01/13 01:46:26;;;;;;;31.87;5.60;;;8.50;99.90;;;;;;5018235;28;20223;-67
2023/01/13 01:49:00;;;;;;;24.27;4.73;;;8.50;99.90;;;;;;5028305;28;20266;-70
2023/01/13 01:51:34;;;;;;;29.50;6.00;;;8.50;99.90;;;;;;5023803;28;20209;-67
2023/01/13 01:54:03;;;;;;;29.30;4.83;;;8.60;99.90;;;;;;5019544;28;20204;-67
2023/01/13 01:56:32;;;;;;;25.17;7.20;;;8.60;99.90;;;;;;5022113;28;20200;-68
2023/01/13 01:58:59;;;;;;;31.87;6.03;;;8.50;99.90;;;;;;5024163;28;20266;-67
2023/01/13 02:01:27;;;;;;;27.27;5.07;;;8.60;99.90;;;;;;5025528;28;20699;-67
2023/01/13 02:04:00;;;;;;;33.17;5.43;;;8.50;99.90;;;;;;5026433;28;20296;-68
2023/01/13 02:06:29;;;;;;;34.60;5.70;;;8.50;99.90;;;;;;5022589;28;20201;-67
2023/01/13 02:08:57;;;;;;;30.20;5.70;;;8.50;99.90;;;;;;5028314;28;20262;-67
2023/01/13 02:14:15;;;;;;;29.17;5.63;;;8.50;99.90;;;;;;5030426;28;20231;-66
2023/01/13 02:17:06;;;;;;;26.20;4.83;;;8.40;99.90;;;;;;5024237;28;20270;-67
2023/01/13 02:19:54;;;;;;;29.40;5.33;;;8.40;99.90;;;;;;5031724;28;20293;-67
2023/01/13 02:22:53;;;;;;;33.03;6.17;;;8.40;99.90;;;;;;5025679;28;20277;-67
2023/01/13 02:25:26;;;;;;;33.30;6.60;;;8.40;99.90;;;;;;5026622;28;20209;-67
2023/01/13 02:28:01;;;;;;;26.93;5.40;;;8.40;99.90;;;;;;5026854;28;20196;-68
2023/01/13 02:33:58;;;;;;;23.53;5.17;;;8.40;99.90;;;;;;5019220;28;20886;-68
2023/01/13 02:36:43;;;;;;;27.70;6.10;;;8.40;99.90;;;;;;5026488;28;20200;-67
2023/01/13 02:39:28;;;;;;;35.77;6.10;;;8.40;99.90;;;;;;5021899;28;20303;-68
2023/01/13 02:45:07;;;;;;;34.33;5.87;;;8.40;99.90;;;;;;5023034;28;20210;-68
2023/01/13 02:47:38;;;;;;;30.23;5.43;;;8.40;99.90;;;;;;5025277;28;20246;-68
2023/01/13 02:50:12;;;;;;;33.20;5.70;;;8.40;99.90;;;;;;5022362;28;20219;-67
2023/01/13 02:52:53;;;;;;;25.93;5.17;;;8.30;99.90;;;;;;5025433;28;20212;-67
2023/01/13 02:55:34;;;;;;;27.10;5.00;;;8.40;99.90;;;;;;5021693;28;20588;-67
2023/01/13 02:58:05;;;;;;;30.63;5.70;;;8.40;99.90;;;;;;5027095;28;20620;-67
2023/01/13 03:00:34;;;;;;;27.27;4.97;;;8.30;99.90;;;;;;5025022;28;20290;-67
2023/01/13 03:03:01;;;;;;;32.60;5.50;;;8.30;99.90;;;;;;5023628;28;20596;-67
2023/01/13 03:05:31;;;;;;;28.90;5.53;;;8.30;99.90;;;;;;5021746;28;20707;-67
2023/01/13 03:08:21;;;;;;;35.87;6.27;;;8.30;99.90;;;;;;5026350;28;20231;-67
2023/01/13 03:10:55;;;;;;;39.97;6.53;;;8.40;99.90;;;;;;5021877;28;20250;-67
2023/01/13 03:14:14;;;;;;;28.00;5.30;;;8.40;99.90;;;;;;5028340;28;20191;-68
2023/01/13 03:17:00;;;;;;;29.07;5.73;;;8.40;99.90;;;;;;5002410;28;20868;-67
2023/01/13 03:20:01;;;;;;;31.20;6.37;;;8.40;99.90;;;;;;5027209;28;20221;-67
2023/01/13 03:22:50;;;;;;;31.20;5.87;;;8.40;99.90;;;;;;5020758;28;20201;-67
2023/01/13 03:25:21;;;;;;;29.87;6.20;;;8.40;99.90;;;;;;5022218;28;20301;-67
2023/01/13 03:28:02;;;;;;;35.03;6.00;;;8.40;99.90;;;;;;5029502;28;20275;-68
2023/01/13 03:30:37;;;;;;;32.97;6.30;;;8.40;99.90;;;;;;5023028;28;20225;-67
2023/01/13 03:33:25;;;;;;;35.07;5.50;;;8.40;99.90;;;;;;5023073;28;20212;-67
2023/01/13 03:35:57;;;;;;;23.87;6.30;;;8.40;99.90;;;;;;5020094;28;20683;-67
2023/01/13 03:38:28;;;;;;;28.63;4.60;;;8.40;99.90;;;;;;5022259;28;20196;-67
2023/01/13 03:41:00;;;;;;;26.87;4.83;;;8.40;99.90;;;;;;5025180;28;20686;-67
2023/01/13 03:46:33;;;;;;;31.23;5.70;;;8.40;99.90;;;;;;5025211;28;20225;-67
2023/01/13 03:49:02;;;;;;;26.57;4.97;;;8.50;99.90;;;;;;5024282;28;20248;-67
2023/01/13 03:51:32;;;;;;;24.83;5.03;;;8.50;99.90;;;;;;5021270;28;20209;-66
2023/01/13 03:54:07;;;;;;;36.67;6.17;;;8.50;99.90;;;;;;5027076;28;21117;-68
2023/01/13 03:56:42;;;;;;;26.00;5.13;;;8.50;99.90;;;;;;5022320;28;20237;-66
2023/01/13 03:59:24;;;;;;;35.50;6.90;;;8.50;99.90;;;;;;5028837;28;20220;-66
2023/01/13 04:02:37;;;;;;;29.43;5.33;;;8.60;99.90;;;;;;5025886;28;20232;-68
2023/01/13 04:05:08;;;;;;;35.70;6.37;;;8.60;99.90;;;;;;5019164;28;20217;-67
2023/01/13 04:08:05;;;;;;;29.67;4.40;;;8.60;99.90;;;;;;5015539;28;20597;-66
2023/01/13 04:10:41;;;;;;;36.77;5.43;;;8.60;99.90;;;;;;5023580;28;20308;-67
2023/01/13 04:13:13;;;;;;;29.20;4.70;;;8.60;99.90;;;;;;5019351;28;20287;-66
2023/01/13 04:15:42;;;;;;;27.23;4.47;;;8.60;99.90;;;;;;5025897;28;20226;-67
2023/01/13 04:18:13;;;;;;;30.47;4.97;;;8.60;99.90;;;;;;5026138;28;20232;-67
2023/01/13 04:20:42;;;;;;;28.50;4.80;;;8.60;99.90;;;;;;5024618;28;21030;-67
2023/01/13 04:23:09;;;;;;;21.13;4.60;;;8.50;99.90;;;;;;5025654;28;20235;-68
2023/01/13 04:25:36;;;;;;;22.63;3.83;;;8.50;99.90;;;;;;5022201;28;20632;-67
2023/01/13 04:28:03;;;;;;;25.30;4.83;;;8.50;99.90;;;;;;5024687;28;20735;-68
2023/01/13 04:30:30;;;;;;;16.77;3.20;;;8.50;99.90;;;;;;5023217;28;20211;-67
2023/01/13 04:32:56;;;;;;;22.10;4.53;;;8.50;99.90;;;;;;5018804;28;20299;-68
2023/01/13 04:35:23;;;;;;;20.27;4.03;;;8.50;99.90;;;;;;5022823;28;20206;-67
2023/01/13 04:37:50;;;;;;;21.27;4.67;;;8.40;99.90;;;;;;5022738;28;20203;-68
2023/01/13 04:40:17;;;;;;;21.83;4.57;;;8.40;99.90;;;;;;5026978;28;20715;-68
2023/01/13 04:42:44;;;;;;;24.90;6.03;;;8.50;99.90;;;;;;5019366;28;20755;-68
2023/01/13 04:45:11;;;;;;;28.07;4.70;;;8.40;99.90;;;;;;5027871;28;20691;-68
2023/01/13 04:47:40;;;;;;;24.10;3.83;;;8.50;99.90;;;;;;5020759;28;20312;-68
2023/01/13 04:50:08;;;;;;;25.80;4.40;;;8.40;99.90;;;;;;5021266;28;20205;-67
2023/01/13 04:52:35;;;;;;;26.27;5.40;;;8.40;99.90;;;;;;5020526;28;20280;-67
2023/01/13 04:55:01;;;;;;;16.60;3.97;;;8.40;99.90;;;;;;5021467;28;20215;-67
2023/01/13 04:57:28;;;;;;;19.27;3.73;;;8.40;99.90;;;;;;5032925;28;20232;-67
2023/01/13 04:59:55;;;;;;;21.73;4.50;;;8.30;99.90;;;;;;5020247;28;20293;-67
2023/01/13 05:02:22;;;;;;;18.43;3.47;;;8.30;99.90;;;;;;5020902;28;20332;-67
2023/01/13 05:04:49;;;;;;;18.67;3.90;;;8.30;99.90;;;;;;5019659;28;20258;-67
2023/01/13 05:07:16;;;;;;;20.70;3.97;;;8.20;99.90;;;;;;5019879;28;20198;-68
2023/01/13 05:09:42;;;;;;;21.70;4.33;;;8.20;99.90;;;;;;5015552;28;20203;-67
2023/01/13 05:17:41;;;;;;;14.47;3.20;;;8.20;99.90;;;;;;5013651;28;20298;-68
2023/01/13 05:20:09;;;;;;;12.27;2.27;;;8.10;99.90;;;;;;5028175;28;20305;-67
2023/01/13 05:25:21;;;;;;;16.03;3.00;;;8.00;99.90;;;;;;5035170;28;20614;-66
2023/01/13 05:27:48;;;;;;;15.40;2.83;;;8.00;99.90;;;;;;5027162;28;20213;-67
2023/01/13 05:30:16;;;;;;;16.60;2.20;;;8.00;99.90;;;;;;5021646;28;20200;-67
2023/01/13 05:32:43;;;;;;;14.90;2.10;;;8.00;99.90;;;;;;5031123;28;20306;-67
2023/01/13 05:35:09;;;;;;;12.93;2.77;;;8.00;99.90;;;;;;5024988;28;20202;-67
2023/01/13 05:37:36;;;;;;;13.00;3.00;;;8.10;99.90;;;;;;5026162;28;20591;-67
2023/01/13 05:43:23;;;;;;;13.73;2.33;;;8.00;99.90;;;;;;5024852;28;20574;-67
2023/01/13 05:45:58;;;;;;;14.10;3.30;;;8.00;99.90;;;;;;5025701;28;20206;-68
2023/01/13 05:48:28;;;;;;;11.73;3.23;;;7.90;99.90;;;;;;5026365;28;20288;-68
2023/01/13 05:50:55;;;;;;;9.27;2.17;;;7.90;99.90;;;;;;5027519;28;20226;-67
2023/01/13 05:53:23;;;;;;;12.90;2.47;;;7.90;99.90;;;;;;5026271;28;20606;-67
2023/01/13 05:55:50;;;;;;;11.10;2.60;;;7.90;99.90;;;;;;5027300;28;20284;-67
2023/01/13 05:58:19;;;;;;;16.87;2.90;;;8.00;99.90;;;;;;5025281;28;20219;-67
2023/01/13 06:00:45;;;;;;;12.77;2.27;;;8.00;99.90;;;;;;5023716;28;20195;-67
2023/01/13 06:03:12;;;;;;;17.07;3.00;;;8.00;99.90;;;;;;5027498;28;20213;-67
2023/01/13 06:05:39;;;;;;;14.23;2.87;;;8.10;99.90;;;;;;5022284;28;20257;-67
2023/01/13 06:08:06;;;;;;;14.73;2.33;;;8.10;99.90;;;;;;5025235;28;20292;-67
2023/01/13 06:10:34;;;;;;;13.53;2.87;;;8.20;99.90;;;;;;5023886;28;20236;-67
2023/01/13 06:13:02;;;;;;;9.80;2.70;;;8.20;99.90;;;;;;5027360;28;20211;-67
2023/01/13 06:15:28;;;;;;;15.77;4.10;;;8.20;99.90;;;;;;5022859;28;20712;-68
2023/01/13 06:17:56;;;;;;;14.03;2.57;;;8.20;99.90;;;;;;5031389;28;20272;-68
2023/01/13 06:20:23;;;;;;;12.77;2.90;;;8.20;99.90;;;;;;5027051;28;20207;-67
2023/01/13 06:22:52;;;;;;;13.60;2.47;;;8.20;99.90;;;;;;5027725;28;20210;-67
2023/01/13 06:25:22;;;;;;;12.90;2.93;;;8.20;99.90;;;;;;5024268;28;20663;-67
2023/01/13 06:27:50;;;;;;;13.17;2.87;;;8.20;99.90;;;;;;5033768;28;20215;-67
2023/01/13 06:30:17;;;;;;;11.33;2.23;;;8.20;99.90;;;;;;5029006;28;20199;-68
2023/01/13 06:32:49;;;;;;;19.80;3.10;;;8.20;99.90;;;;;;5030160;28;20307;-67
2023/01/13 06:35:20;;;;;;;13.87;2.87;;;8.10;99.90;;;;;;5028311;28;20199;-67
2023/01/13 06:37:50;;;;;;;15.90;2.70;;;8.20;99.90;;;;;;5028181;28;20194;-67
2023/01/13 06:40:17;;;;;;;13.10;2.93;;;8.20;99.90;;;;;;5028228;28;20322;-67
2023/01/13 06:45:30;;;;;;;13.47;2.83;;;8.30;99.90;;;;;;5031137;28;20249;-67
2023/01/13 06:47:58;;;;;;;17.98;3.85;;;8.30;99.90;;;;;;5027622;28;20452;-68
2023/01/13 06:50:27;;;;;;;18.77;4.20;;;8.60;99.90;;;;;;5020893;28;20767;-67
2023/01/13 06:52:53;;;;;;;16.60;2.80;;;8.80;99.90;;;;;;5022356;28;20242;-67
2023/01/13 06:55:20;;;;;;;18.13;2.97;;;8.70;99.90;;;;;;5018063;28;20581;-67
2023/01/13 06:57:51;;;;;;;18.77;3.20;;;8.70;99.90;;;;;;5029726;28;20292;-67
2023/01/13 07:00:19;;;;;;;20.73;2.97;;;8.60;99.90;;;;;;5023840;28;20207;-67
2023/01/13 07:02:47;;;;;;;19.27;3.60;;;8.50;99.90;;;;;;5026079;28;20261;-67
2023/01/13 07:05:14;;;;;;;22.87;4.43;;;8.40;99.90;;;;;;5025867;28;20246;-67
2023/01/13 07:07:41;;;;;;;20.13;3.47;;;8.40;99.90;;;;;;5028272;28;20590;-67
2023/01/13 07:10:11;;;;;;;15.07;2.60;;;8.40;99.90;;;;;;5019878;28;20255;-67
2023/01/13 07:15:25;;;;;;;20.20;3.53;;;8.50;99.90;;;;;;5026777;28;20291;-68
2023/01/13 07:17:52;;;;;;;15.57;2.73;;;8.40;99.90;;;;;;5030562;28;20220;-67
2023/01/13 07:20:20;;;;;;;13.90;2.80;;;8.50;99.90;;;;;;5017656;28;20309;-67
2023/01/13 07:22:53;;;;;;;17.07;3.70;;;8.50;99.90;;;;;;5020930;28;20242;-67
2023/01/13 07:25:20;;;;;;;17.30;3.40;;;8.50;99.90;;;;;;5023399;28;20236;-67
2023/01/13 07:27:47;;;;;;;15.93;2.43;;;8.50;99.90;;;;;;5027900;28;20733;-67
2023/01/13 07:30:14;;;;;;;12.13;3.23;;;8.50;99.90;;;;;;5026123;28;20297;-67
2023/01/13 07:32:41;;;;;;;17.20;3.80;;;8.50;99.90;;;;;;5027613;28;20304;-68
2023/01/13 07:35:07;;;;;;;14.33;2.90;;;8.50;99.90;;;;;;5021119;28;20260;-68
2023/01/13 07:37:36;;;;;;;13.50;2.90;;;8.50;99.90;;;;;;5030554;28;20206;-68
2023/01/13 07:40:06;;;;;;;14.30;4.87;;;8.60;99.90;;;;;;5026177;28;20243;-68
2023/01/13 07:45:22;;;;;;;18.10;3.90;;;8.60;99.90;;;;;;5028171;28;20232;-67
2023/01/13 07:47:51;;;;;;;16.77;3.30;;;8.60;99.90;;;;;;5025172;28;20223;-67
2023/01/13 07:50:18;;;;;;;19.83;3.10;;;8.60;99.90;;;;;;5029590;28;20624;-67
2023/01/13 07:52:45;;;;;;;17.80;2.90;;;8.60;99.90;;;;;;5021202;28;20225;-67
2023/01/13 07:55:12;;;;;;;14.83;3.70;;;8.60;99.90;;;;;;5024978;28;20213;-67
2023/01/13 07:57:38;;;;;;;20.63;4.03;;;8.60;99.90;;;;;;5025619;28;20218;-67
2023/01/13 08:00:06;;;;;;;15.47;2.97;;;8.60;99.90;;;;;;5026224;28;20235;-68
2023/01/13 08:02:32;;;;;;;22.37;3.50;;;8.60;99.90;;;;;;5025638;28;20304;-67
2023/01/13 08:04:59;;;;;;;21.07;4.23;;;8.60;99.90;;;;;;5021482;28;20613;-68
2023/01/13 08:07:26;;;;;;;13.93;3.47;;;8.70;99.90;;;;;;5021236;28;20252;-67
2023/01/13 08:09:52;;;;;;;25.37;3.83;;;8.60;99.90;;;;;;5027981;28;20234;-68
2023/01/13 08:15:05;;;;;;;25.93;5.70;;;8.60;99.90;;;;;;5030724;28;20239;-68
2023/01/13 08:17:32;;;;;;;25.37;4.33;;;8.50;99.90;;;;;;5028252;28;20407;-68
2023/01/13 08:19:59;;;;;;;16.80;3.53;;;8.60;99.90;;;;;;5027401;28;20295;-69
2023/01/13 08:22:25;;;;;;;17.13;3.30;;;8.50;99.90;;;;;;5028513;28;20311;-69
2023/01/13 08:24:52;;;;;;;21.80;4.00;;;8.60;99.90;;;;;;5028110;28;20726;-67
2023/01/13 08:27:19;;;;;;;24.43;4.57;;;8.50;99.90;;;;;;5028273;28;20204;-68
2023/01/13 08:29:45;;;;;;;19.13;3.73;;;8.60;99.90;;;;;;5026392;28;20224;-68
2023/01/13 08:32:12;;;;;;;20.33;4.13;;;8.60;99.90;;;;;;5028549;28;20772;-68
2023/01/13 08:34:39;;;;;;;18.47;3.60;;;8.60;99.90;;;;;;5029143;28;20242;-67
2023/01/13 08:37:05;;;;;;;12.33;3.57;;;8.60;99.90;;;;;;5022099;28;20217;-67
2023/01/13 08:39:32;;;;;;;16.27;3.40;;;8.70;99.90;;;;;;5028070;28;20236;-67
2023/01/13 08:41:59;;;;;;;20.37;3.50;;;8.70;99.90;;;;;;5022344;28;20572;-67
2023/01/13 08:44:28;;;;;;;17.20;3.73;;;8.70;99.90;;;;;;5028505;28;20232;-68
2023/01/13 08:46:56;;;;;;;14.70;3.73;;;8.80;99.90;;;;;;5024933;28;20224;-67
2023/01/13 08:49:24;;;;;;;21.00;3.73;;;8.80;99.90;;;;;;5025510;28;20205;-68
2023/01/13 08:51:52;;;;;;;17.37;3.90;;;8.90;99.90;;;;;;5024882;28;20247;-67
2023/01/13 08:54:18;;;;;;;23.93;3.60;;;8.90;99.90;;;;;;5027567;28;20205;-68
2023/01/13 08:56:46;;;;;;;23.43;4.93;;;8.90;99.90;;;;;;5029091;28;20324;-68
2023/01/13 08:59:15;;;;;;;18.27;4.10;;;8.80;99.90;;;;;;5030473;28;20206;-68
2023/01/13 09:01:42;;;;;;;21.60;3.90;;;8.80;99.90;;;;;;5033282;28;20260;-68
2023/01/13 09:04:22;;;;;;;22.63;3.67;;;8.70;99.90;;;;;;5027972;28;20217;-69
2023/01/13 09:06:49;;;;;;;19.10;4.00;;;8.70;99.90;;;;;;5029833;28;20614;-66
2023/01/13 09:09:17;;;;;;;20.73;4.50;;;8.60;99.90;;;;;;5030382;28;20299;-67
2023/01/13 09:14:36;;;;;;;23.30;4.20;;;8.60;99.90;;;;;;5028790;28;20205;-67
2023/01/13 09:17:03;;;;;;;26.67;3.87;;;8.60;99.90;;;;;;5032770;28;20319;-67
2023/01/13 09:19:30;;;;;;;18.77;4.77;;;8.60;99.90;;;;;;5025050;28;20198;-67
2023/01/13 09:21:57;;;;;;;21.33;5.90;;;8.50;99.90;;;;;;5030190;28;20608;-67
2023/01/13 09:24:24;;;;;;;24.07;3.90;;;8.50;99.90;;;;;;5027524;28;20336;-66
2023/01/13 09:26:51;;;;;;;22.30;4.30;;;8.40;99.90;;;;;;5032591;28;20665;-68
2023/01/13 09:29:17;;;;;;;23.93;4.43;;;8.40;99.90;;;;;;5029426;28;20241;-67
2023/01/13 09:31:44;;;;;;;31.30;4.93;;;8.30;99.90;;;;;;5030498;28;21030;-67
2023/01/13 09:37:04;;;;;;;24.57;4.87;;;8.20;99.90;;;;;;5024891;28;20293;-66
2023/01/13 09:39:32;;;;;;;30.87;4.60;;;8.20;99.90;;;;;;5032560;28;20399;-67
2023/01/13 09:45:14;;;;;;;25.30;4.37;;;8.20;99.90;;;;;;5021897;28;20240;-68
2023/01/13 09:47:55;;;;;;;26.47;3.93;;;8.10;99.90;;;;;;5029825;28;20698;-66
2023/01/13 09:50:50;;;;;;;33.40;4.20;;;8.10;99.90;;;;;;5027940;28;20208;-66
2023/01/13 09:53:30;;;;;;;31.33;4.87;;;8.20;99.90;;;;;;5025457;28;20600;-67
2023/01/13 09:56:01;;;;;;;22.90;4.73;;;8.20;99.90;;;;;;5029982;28;20334;-67
2023/01/13 09:58:27;;;;;;;24.60;3.90;;;8.20;99.90;;;;;;5030634;28;20617;-66
2023/01/13 10:00:54;;;;;;;18.77;4.60;;;8.20;99.90;;;;;;5025213;28;20240;-67
2023/01/13 10:03:28;;;;;;;19.97;4.17;;;8.30;99.90;;;;;;5033509;28;20249;-67
2023/01/13 10:06:21;;;;;;;16.13;4.30;;;8.40;99.90;;;;;;5022415;28;20241;-67
2023/01/13 10:08:48;;;;;;;22.13;3.93;;;8.30;99.90;;;;;;5025406;28;20867;-66
2023/01/13 10:14:15;;;;;;;21.47;3.80;;;8.40;99.90;;;;;;5024558;28;20202;-67
2023/01/13 10:17:03;;;;;;;25.20;4.40;;;8.30;99.90;;;;;;5034662;28;20227;-67
2023/01/13 10:19:38;;;;;;;26.80;5.20;;;8.40;99.90;;;;;;5025270;28;20206;-66
2023/01/13 10:22:37;;;;;;;25.80;5.17;;;8.40;99.90;;;;;;5028323;28;20302;-67
2023/01/13 10:25:03;;;;;;;20.97;4.07;;;8.40;99.90;;;;;;5030372;28;20268;-67
2023/01/13 10:27:39;;;;;;;18.13;4.10;;;8.40;99.90;;;;;;5026004;28;20244;-68
2023/01/13 10:30:16;;;;;;;23.97;3.97;;;8.40;99.90;;;;;;5032054;28;20274;-68
2023/01/13 10:32:48;;;;;;;24.13;4.70;;;8.40;99.90;;;;;;5028984;28;20638;-68
2023/01/13 10:35:15;;;;;;;21.43;3.77;;;8.40;99.90;;;;;;5027160;28;20220;-68
2023/01/13 10:37:56;;;;;;;26.87;4.40;;;8.40;99.90;;;;;;5032671;28;20665;-69
2023/01/13 10:40:22;;;;;;;19.33;3.80;;;8.50;99.90;;;;;;5021950;28;20688;-66
2023/01/13 10:43:05;;;;;;;23.63;4.50;;;8.50;99.90;;;;;;5034703;28;20205;-68
2023/01/13 10:45:32;;;;;;;25.87;4.40;;;8.40;99.90;;;;;;5028278;28;20323;-68
2023/01/13 10:48:11;;;;;;;25.67;3.97;;;8.40;99.90;;;;;;5028643;28;20228;-68
2023/01/13 10:50:40;;;;;;;21.80;3.67;;;8.40;99.90;;;;;;5027696;28;20285;-66
2023/01/13 10:53:21;;;;;;;22.10;3.87;;;8.30;99.90;;;;;;5025641;28;20205;-67
2023/01/13 10:55:59;;;;;;;29.37;3.90;;;8.30;99.90;;;;;;5030852;28;20221;-67
2023/01/13 10:58:27;;;;;;;22.20;4.53;;;8.30;99.90;;;;;;5029647;28;20718;-66
2023/01/13 11:01:05;;;;;;;15.23;3.80;;;8.30;99.90;;;;;;5025532;28;20236;-66
2023/01/13 11:03:41;;;;;;;15.20;3.87;;;8.20;99.90;;;;;;5032762;28;20213;-66
2023/01/13 11:06:17;;;;;;;16.53;4.53;;;8.20;99.90;;;;;;5020638;28;20240;-66
2023/01/13 11:08:46;;;;;;;25.60;4.07;;;8.20;99.90;;;;;;5030074;28;20319;-67
2023/01/13 11:11:27;;;;;;;28.57;4.97;;;8.20;99.90;;;;;;5024646;28;20222;-67
2023/01/13 11:16:50;;;;;;;24.60;4.40;;;8.30;99.90;;;;;;5033492;28;20225;-67
2023/01/13 11:19:23;;;;;;;33.63;5.33;;;8.30;99.90;;;;;;5017977;28;21106;-67
2023/01/13 11:22:13;;;;;;;19.83;4.20;;;8.30;99.90;;;;;;5033457;28;20291;-67
2023/01/13 11:24:47;;;;;;;25.13;4.23;;;8.30;99.90;;;;;;5025397;28;20294;-67
2023/01/13 11:27:41;;;;;;;23.03;4.37;;;8.30;99.90;;;;;;5023974;28;20246;-67
2023/01/13 11:30:41;;;;;;;22.87;5.47;;;8.30;99.90;;;;;;5026924;28;20768;-68
2023/01/13 11:33:14;;;;;;;22.30;4.63;;;8.30;99.90;;;;;;5026485;28;20230;-67
2023/01/13 11:36:03;;;;;;;34.83;4.53;;;8.40;99.90;;;;;;5026407;28;20292;-66
2023/01/13 11:38:42;;;;;;;25.03;4.10;;;8.40;99.90;;;;;;5026042;28;20205;-68
2023/01/13 11:41:14;;;;;;;24.90;4.77;;;8.40;99.90;;;;;;5029544;28;20258;-68
2023/01/13 11:43:58;;;;;;;21.50;5.03;;;8.50;99.90;;;;;;5021524;28;20296;-68
2023/01/13 11:46:27;;;;;;;27.43;4.60;;;8.50;99.90;;;;;;5026001;28;20323;-68
2023/01/13 11:48:55;;;;;;;23.90;3.60;;;8.50;99.90;;;;;;5025681;28;20212;-67
2023/01/13 11:51:31;;;;;;;24.80;4.33;;;8.60;99.90;;;;;;5021988;28;20212;-68
2023/01/13 11:54:24;;;;;;;26.07;3.73;;;8.60;99.90;;;;;;5025455;28;20547;-68
2023/01/13 11:57:08;;;;;;;21.20;3.60;;;8.70;99.90;;;;;;5027544;28;20203;-68
2023/01/13 12:00:01;;;;;;;23.63;4.20;;;8.70;99.90;;;;;;5020598;28;20620;-68
2023/01/13 12:02:57;;;;;;;25.50;5.10;;;8.70;99.90;;;;;;5023055;28;20795;-68
2023/01/13 12:05:50;;;;;;;19.73;5.10;;;8.80;99.90;;;;;;5027888;28;20252;-68
2023/01/13 12:08:37;;;;;;;28.30;3.93;;;8.80;99.90;;;;;;5027414;28;20213;-67
2023/01/13 12:11:29;;;;;;;28.43;5.20;;;8.80;99.90;;;;;;5055584;28;20280;-68
2023/01/13 12:14:26;;;;;;;13.73;3.40;;;8.80;99.90;;;;;;5020493;28;20282;-67
2023/01/13 12:16:53;;;;;;;16.63;3.80;;;8.80;99.90;;;;;;5023319;28;20304;-67
2023/01/13 12:19:29;;;;;;;16.50;3.30;;;8.80;99.90;;;;;;5020351;28;20237;-66
2023/01/13 12:22:10;;;;;;;16.33;3.27;;;8.90;99.90;;;;;;5029692;28;20314;-67
2023/01/13 12:24:49;;;;;;;13.47;4.40;;;8.80;99.90;;;;;;5027595;28;20210;-67
2023/01/13 12:27:26;;;;;;;18.57;5.07;;;8.80;99.90;;;;;;5027824;28;20281;-68
2023/01/13 12:29:58;;;;;;;20.63;4.40;;;8.90;99.90;;;;;;5023274;28;20229;-67
2023/01/13 12:32:43;;;;;;;14.13;3.67;;;8.90;99.90;;;;;;5027264;28;20265;-67
2023/01/13 12:35:38;;;;;;;11.93;3.07;;;9.00;99.90;;;;;;5022057;28;20293;-67
2023/01/13 12:38:23;;;;;;;17.80;4.00;;;9.00;99.90;;;;;;5027230;28;20690;-67
2023/01/13 12:41:12;;;;;;;17.80;4.57;;;9.00;99.90;;;;;;5029552;28;20237;-68
2023/01/13 12:46:31;;;;;;;22.50;3.03;;;9.00;99.90;;;;;;5021888;28;20241;-68
2023/01/13 12:49:01;;;;;;;16.97;3.27;;;9.00;99.90;;;;;;5026787;28;20252;-68
2023/01/13 12:51:34;;;;;;;14.47;3.70;;;9.00;99.90;;;;;;5026014;28;20300;-68
2023/01/13 12:54:28;;;;;;;13.47;3.67;;;9.10;99.90;;;;;;5024827;28;20555;-67
2023/01/13 12:56:59;;;;;;;16.37;4.20;;;9.10;99.90;;;;;;5027513;28;20296;-68
2023/01/13 12:59:25;;;;;;;17.63;3.10;;;9.10;99.90;;;;;;5026169;28;20199;-68
2023/01/13 13:02:25;;;;;;;17.00;3.33;;;9.10;99.90;;;;;;5025753;28;20231;-68
2023/01/13 13:04:54;;;;;;;12.83;3.70;;;9.10;99.90;;;;;;4957061;28;20214;-68
2023/01/13 13:07:42;;;;;;;20.10;4.40;;;9.20;99.90;;;;;;5029922;28;20209;-67
2023/01/13 13:10:29;;;;;;;11.43;2.43;;;9.20;99.90;;;;;;5018990;28;20658;-67
2023/01/13 13:13:16;;;;;;;15.40;3.53;;;9.20;99.90;;;;;;5028288;28;20213;-68
2023/01/13 13:15:49;;;;;;;12.50;2.40;;;9.30;99.90;;;;;;5026511;28;20210;-67
2023/01/13 13:18:16;;;;;;;15.97;3.43;;;9.30;99.90;;;;;;5030728;28;20202;-67
2023/01/13 13:21:00;;;;;;;19.13;3.70;;;9.30;99.90;;;;;;5026801;28;20311;-68
2023/01/13 13:23:34;;;;;;;19.73;3.33;;;9.40;99.90;;;;;;5025492;28;20218;-67
2023/01/13 13:26:15;;;;;;;10.93;2.63;;;9.40;99.90;;;;;;5027736;28;20723;-67
2023/01/13 13:29:09;;;;;;;15.60;3.30;;;9.40;99.90;;;;;;5027205;28;20198;-67
2023/01/13 13:32:07;;;;;;;11.40;2.60;;;9.50;99.90;;;;;;5026217;28;20307;-68
2023/01/13 13:34:47;;;;;;;14.40;5.07;;;9.50;99.90;;;;;;5029556;28;20297;-67
2023/01/13 13:46:46;;;;;;;9.43;2.57;;;9.60;99.90;;;;;;5030144;28;20584;-68
2023/01/13 13:49:32;;;;;;;12.93;3.13;;;9.70;99.90;;;;;;5032912;28;20643;-67
2023/01/13 13:52:11;;;;;;;12.80;3.47;;;9.70;99.90;;;;;;5026654;28;20744;-68
2023/01/13 13:54:41;;;;;;;11.33;2.60;;;9.70;99.90;;;;;;5027192;28;20228;-68
2023/01/13 13:57:29;;;;;;;8.83;2.50;;;9.60;99.90;;;;;;5028870;28;21033;-68
2023/01/13 13:59:59;;;;;;;13.27;2.60;;;9.60;99.90;;;;;;5020304;28;20206;-67
2023/01/13 14:02:30;;;;;;;10.83;3.20;;;9.60;99.90;;;;;;5027846;28;20222;-66
2023/01/13 14:05:18;;;;;;;10.03;3.27;;;9.60;99.90;;;;;;5022255;28;20445;-68
2023/01/13 14:07:48;;;;;;;9.80;2.60;;;9.60;99.90;;;;;;5023265;28;20316;-68
2023/01/13 14:10:23;;;;;;;12.17;3.33;;;9.60;99.90;;;;;;5021299;28;20310;-67
2023/01/13 14:12:53;;;;;;;9.70;2.63;;;9.70;99.90;;;;;;5025372;28;20200;-67
2023/01/13 14:15:35;;;;;;;13.70;3.13;;;9.70;99.90;;;;;;5030206;28;20248;-67
2023/01/13 14:18:11;;;;;;;11.23;2.60;;;9.80;99.90;;;;;;5026592;28;20675;-70
2023/01/13 14:20:53;;;;;;;12.80;2.40;;;9.70;99.90;;;;;;5024119;28;20210;-67